Flugplatz Frankfurt am Main International

Bericht für EDDF

vom 07.03. um 01:50 UTC

Wind 5 kt aus 10°

Sichtweite 10 km oder mehr

gute Sicht, keine Wolken < 5000 ft, keine CB, keine Wettererscheinungen (CAVOK)

Temperatur -2.0°C

Taupunkt -7.0°C

Luftfeuchtigkeit 69%

Luftdruck 1027 hPa

keine wesentliche Wetteränderung innerhalb den nächsten 2 Stunden zu erwarten

EDDF 070150Z 01005KT CAVOK M02/M07 Q1027 NOSIG

Prognose für EDDF

vom 06.03. um 23:00 UTC

Zwischen 00:00 UTC und 06:00 UTC

Wind 5 kt aus 30°

Sichtweite 10 km oder mehr

keine signifikanten Wettererscheinungen

keine Wolken

TAF EDDF 062300Z 0700/0806 03005KT CAVOK
Impressum